Milo, Missouri
Current Conditions -  °F | °C
As of 3:55 AM on Sunday 23 Nov 2014 (Local Time) from KPTS Reporting Station
Overcast Overcast  
Wind Chill: 14°   Ceiling: 1400
Heat Index: 14°   Visibility: 7mi
Dew Point: 14°   Wind: 9mph
Humidity: 99%   Direction: 160°SSE
Pressure: 29.58"   Gusts: NA
Location:  37.76°N, 94.31°W
Report Text: KPTS 230955Z AUTO 16008KT 7SM OVC014 14/14 A2958 RMK AO2 T01380136
Loading
Personal Weather Stations






























Interactive Weather Map New forecast layout! Learn more

10-Day Weather Forecast

Advertisements
Track Severe Weather on mobile